sensor_id;sensor_type;location;lat;lon;timestamp;pressure;altitude;pressure_sealevel;temperature;humidity
6343;BME280;3204;42.698;23.298;2024-01-07T00:01:59;93412.47;;;6.71;92.48
6343;BME280;3204;42.698;23.298;2024-01-07T00:04:24;93410.75;;;6.66;92.88
6343;BME280;3204;42.698;23.298;2024-01-07T00:06:50;93409.31;;;6.69;92.44
6343;BME280;3204;42.698;23.298;2024-01-07T00:09:16;93406.50;;;6.65;92.80
6343;BME280;3204;42.698;23.298;2024-01-07T00:11:41;93397.59;;;6.65;92.06
6343;BME280;3204;42.698;23.298;2024-01-07T00:14:07;93401.19;;;6.77;91.79
6343;BME280;3204;42.698;23.298;2024-01-07T00:16:32;93392.53;;;6.72;91.95
6343;BME280;3204;42.698;23.298;2024-01-07T00:18:58;93392.97;;;6.74;91.72
6343;BME280;3204;42.698;23.298;2024-01-07T00:21:23;93391.28;;;6.69;92.09
6343;BME280;3204;42.698;23.298;2024-01-07T00:23:49;93389.06;;;6.63;91.96
6343;BME280;3204;42.698;23.298;2024-01-07T00:26:14;93385.91;;;6.61;91.88
6343;BME280;3204;42.698;23.298;2024-01-07T00:28:40;93381.94;;;6.58;92.57
6343;BME280;3204;42.698;23.298;2024-01-07T00:31:05;93377.34;;;6.59;91.99
6343;BME280;3204;42.698;23.298;2024-01-07T00:33:34;93371.66;;;6.52;92.58
6343;BME280;3204;42.698;23.298;2024-01-07T00:35:59;93359.63;;;6.58;92.30
6343;BME280;3204;42.698;23.298;2024-01-07T00:38:25;93361.84;;;6.56;92.39
6343;BME280;3204;42.698;23.298;2024-01-07T00:40:50;93345.03;;;6.59;92.10
6343;BME280;3204;42.698;23.298;2024-01-07T00:43:15;93345.41;;;6.49;92.58
6343;BME280;3204;42.698;23.298;2024-01-07T00:45:41;93344.31;;;6.41;92.77
6343;BME280;3204;42.698;23.298;2024-01-07T00:48:07;93337.50;;;6.44;93.03
6343;BME280;3204;42.698;23.298;2024-01-07T00:50:32;93325.28;;;6.46;93.16
6343;BME280;3204;42.698;23.298;2024-01-07T00:52:58;93326.19;;;6.59;92.62
6343;BME280;3204;42.698;23.298;2024-01-07T00:55:23;93315.59;;;6.54;92.93
6343;BME280;3204;42.698;23.298;2024-01-07T00:57:49;93313.66;;;6.63;92.80
6343;BME280;3204;42.698;23.298;2024-01-07T01:00:15;93306.84;;;6.65;92.48
6343;BME280;3204;42.698;23.298;2024-01-07T01:02:40;93303.53;;;6.60;93.15
6343;BME280;3204;42.698;23.298;2024-01-07T01:05:06;93307.34;;;6.59;92.57
6343;BME280;3204;42.698;23.298;2024-01-07T01:07:31;93306.22;;;6.60;93.11
6343;BME280;3204;42.698;23.298;2024-01-07T01:09:58;93304.31;;;6.60;93.25
6343;BME280;3204;42.698;23.298;2024-01-07T01:12:23;93290.81;;;6.69;92.62
6343;BME280;3204;42.698;23.298;2024-01-07T01:14:49;93294.44;;;6.73;92.54
6343;BME280;3204;42.698;23.298;2024-01-07T01:17:14;93280.97;;;6.73;92.44
6343;BME280;3204;42.698;23.298;2024-01-07T01:19:39;93270.84;;;6.70;92.76
6343;BME280;3204;42.698;23.298;2024-01-07T01:22:05;93266.25;;;6.70;92.90
6343;BME280;3204;42.698;23.298;2024-01-07T01:24:30;93266.44;;;6.65;92.73
6343;BME280;3204;42.698;23.298;2024-01-07T01:26:56;93261.06;;;6.65;92.94
6343;BME280;3204;42.698;23.298;2024-01-07T01:29:21;93245.63;;;6.74;92.46
6343;BME280;3204;42.698;23.298;2024-01-07T01:31:46;93239.63;;;6.69;92.07
6343;BME280;3204;42.698;23.298;2024-01-07T01:34:12;93236.00;;;6.65;92.44
6343;BME280;3204;42.698;23.298;2024-01-07T01:36:37;93223.53;;;6.60;92.86
6343;BME280;3204;42.698;23.298;2024-01-07T01:39:03;93214.34;;;6.61;92.92
6343;BME280;3204;42.698;23.298;2024-01-07T01:41:28;93217.91;;;6.74;92.19
6343;BME280;3204;42.698;23.298;2024-01-07T01:44:01;93207.31;;;6.69;92.44
6343;BME280;3204;42.698;23.298;2024-01-07T01:46:28;93210.00;;;6.69;92.63
6343;BME280;3204;42.698;23.298;2024-01-07T01:48:54;93200.34;;;6.68;92.15
6343;BME280;3204;42.698;23.298;2024-01-07T01:51:19;93198.97;;;6.62;92.48
6343;BME280;3204;42.698;23.298;2024-01-07T01:53:46;93174.66;;;6.70;92.15
6343;BME280;3204;42.698;23.298;2024-01-07T01:56:13;93165.47;;;6.71;92.95
6343;BME280;3204;42.698;23.298;2024-01-07T01:58:42;93165.22;;;6.64;92.91
6343;BME280;3204;42.698;23.298;2024-01-07T02:01:07;93167.75;;;6.61;93.09
6343;BME280;3204;42.698;23.298;2024-01-07T02:03:33;93175.50;;;6.62;92.98
6343;BME280;3204;42.698;23.298;2024-01-07T02:05:58;93175.00;;;6.69;93.01
6343;BME280;3204;42.698;23.298;2024-01-07T02:08:24;93180.69;;;6.67;93.00
6343;BME280;3204;42.698;23.298;2024-01-07T02:10:50;93182.44;;;6.72;93.12
6343;BME280;3204;42.698;23.298;2024-01-07T02:13:15;93176.75;;;6.65;92.66
6343;BME280;3204;42.698;23.298;2024-01-07T02:15:41;93182.44;;;6.72;92.25
6343;BME280;3204;42.698;23.298;2024-01-07T02:18:06;93180.97;;;6.74;92.69
6343;BME280;3204;42.698;23.298;2024-01-07T02:20:32;93161.97;;;6.71;92.63
6343;BME280;3204;42.698;23.298;2024-01-07T02:22:57;93154.56;;;6.68;92.76
6343;BME280;3204;42.698;23.298;2024-01-07T02:25:23;93144.03;;;6.75;92.81
6343;BME280;3204;42.698;23.298;2024-01-07T02:27:49;93116.69;;;6.85;92.63
6343;BME280;3204;42.698;23.298;2024-01-07T02:30:14;93089.75;;;6.85;91.99
6343;BME280;3204;42.698;23.298;2024-01-07T02:32:40;93091.09;;;6.79;92.72
6343;BME280;3204;42.698;23.298;2024-01-07T02:35:05;93099.88;;;6.88;92.90
6343;BME280;3204;42.698;23.298;2024-01-07T02:37:31;93089.25;;;6.71;93.72
6343;BME280;3204;42.698;23.298;2024-01-07T02:39:56;93080.22;;;6.55;94.76
6343;BME280;3204;42.698;23.298;2024-01-07T02:42:22;93084.94;;;6.58;94.47
6343;BME280;3204;42.698;23.298;2024-01-07T02:44:47;93087.88;;;6.65;95.16
6343;BME280;3204;42.698;23.298;2024-01-07T02:47:12;93079.94;;;6.68;94.70
6343;BME280;3204;42.698;23.298;2024-01-07T02:49:38;93082.25;;;6.78;94.84
6343;BME280;3204;42.698;23.298;2024-01-07T02:52:04;93092.53;;;6.76;94.77
6343;BME280;3204;42.698;23.298;2024-01-07T02:54:29;93090.22;;;6.87;94.40
6343;BME280;3204;42.698;23.298;2024-01-07T02:56:54;93105.03;;;6.81;94.93
6343;BME280;3204;42.698;23.298;2024-01-07T02:59:20;93104.16;;;6.89;95.42
6343;BME280;3204;42.698;23.298;2024-01-07T03:01:45;93098.31;;;6.87;95.08
6343;BME280;3204;42.698;23.298;2024-01-07T03:04:14;93105.19;;;6.96;94.67
6343;BME280;3204;42.698;23.298;2024-01-07T03:06:40;93117.69;;;7.01;94.50
6343;BME280;3204;42.698;23.298;2024-01-07T03:09:06;93114.72;;;6.94;95.12
6343;BME280;3204;42.698;23.298;2024-01-07T03:11:31;93119.34;;;6.93;95.02
6343;BME280;3204;42.698;23.298;2024-01-07T03:13:57;93124.84;;;6.97;93.79
6343;BME280;3204;42.698;23.298;2024-01-07T03:16:23;93134.59;;;6.89;94.58
6343;BME280;3204;42.698;23.298;2024-01-07T03:18:49;93136.81;;;6.87;94.45
6343;BME280;3204;42.698;23.298;2024-01-07T03:21:18;93140.09;;;6.93;94.60
6343;BME280;3204;42.698;23.298;2024-01-07T03:23:43;93149.34;;;7.04;95.11
6343;BME280;3204;42.698;23.298;2024-01-07T03:26:09;93144.22;;;7.11;95.85
6343;BME280;3204;42.698;23.298;2024-01-07T03:28:34;93146.66;;;7.04;95.61
6343;BME280;3204;42.698;23.298;2024-01-07T03:31:05;93140.94;;;7.05;97.33
6343;BME280;3204;42.698;23.298;2024-01-07T03:33:30;93138.94;;;7.14;97.01
6343;BME280;3204;42.698;23.298;2024-01-07T03:35:56;93137.06;;;7.15;97.28
6343;BME280;3204;42.698;23.298;2024-01-07T03:38:21;93130.66;;;7.19;98.92
6343;BME280;3204;42.698;23.298;2024-01-07T03:40:46;93131.69;;;7.27;98.83
6343;BME280;3204;42.698;23.298;2024-01-07T03:43:12;93133.75;;;7.42;99.57
6343;BME280;3204;42.698;23.298;2024-01-07T03:45:37;93131.25;;;7.69;99.14
6343;BME280;3204;42.698;23.298;2024-01-07T03:48:03;93122.38;;;7.81;99.06
6343;BME280;3204;42.698;23.298;2024-01-07T03:50:28;93110.69;;;7.77;99.71
6343;BME280;3204;42.698;23.298;2024-01-07T03:52:53;93108.78;;;7.89;100.00
6343;BME280;3204;42.698;23.298;2024-01-07T03:55:19;93102.81;;;8.20;100.00
6343;BME280;3204;42.698;23.298;2024-01-07T03:57:44;93103.13;;;8.18;100.00
6343;BME280;3204;42.698;23.298;2024-01-07T04:00:10;93104.41;;;8.21;100.00
6343;BME280;3204;42.698;23.298;2024-01-07T04:02:35;93093.84;;;8.28;100.00
6343;BME280;3204;42.698;23.298;2024-01-07T04:05:00;93091.00;;;8.36;100.00
6343;BME280;3204;42.698;23.298;2024-01-07T04:07:26;93090.94;;;8.60;100.00
6343;BME280;3204;42.698;23.298;2024-01-07T04:09:51;93084.56;;;8.53;99.96
6343;BME280;3204;42.698;23.298;2024-01-07T04:12:17;93095.84;;;8.43;100.00
6343;BME280;3204;42.698;23.298;2024-01-07T04:14:43;93084.69;;;8.44;100.00
6343;BME280;3204;42.698;23.298;2024-01-07T04:17:08;93078.94;;;8.46;100.00
6343;BME280;3204;42.698;23.298;2024-01-07T04:19:36;93066.81;;;8.67;100.00
6343;BME280;3204;42.698;23.298;2024-01-07T04:22:03;93063.94;;;8.48;100.00
6343;BME280;3204;42.698;23.298;2024-01-07T04:24:29;93056.66;;;8.49;100.00
6343;BME280;3204;42.698;23.298;2024-01-07T04:26:54;93057.97;;;8.55;100.00
6343;BME280;3204;42.698;23.298;2024-01-07T04:29:20;93056.38;;;8.66;100.00
6343;BME280;3204;42.698;23.298;2024-01-07T04:31:45;93058.97;;;8.62;100.00
6343;BME280;3204;42.698;23.298;2024-01-07T04:34:11;93068.25;;;8.49;100.00
6343;BME280;3204;42.698;23.298;2024-01-07T04:36:36;93065.88;;;8.48;100.00
6343;BME280;3204;42.698;23.298;2024-01-07T04:39:01;93055.91;;;8.64;100.00
6343;BME280;3204;42.698;23.298;2024-01-07T04:41:27;93043.44;;;8.59;100.00
6343;BME280;3204;42.698;23.298;2024-01-07T04:43:52;93038.63;;;8.53;100.00
6343;BME280;3204;42.698;23.298;2024-01-07T04:46:18;93052.84;;;8.38;100.00
6343;BME280;3204;42.698;23.298;2024-01-07T04:48:43;93049.25;;;8.34;100.00
6343;BME280;3204;42.698;23.298;2024-01-07T04:51:08;93048.47;;;8.33;100.00
6343;BME280;3204;42.698;23.298;2024-01-07T04:53:34;93055.19;;;8.39;100.00
6343;BME280;3204;42.698;23.298;2024-01-07T04:55:59;93055.41;;;8.46;100.00
6343;BME280;3204;42.698;23.298;2024-01-07T04:58:25;93061.38;;;8.52;100.00
6343;BME280;3204;42.698;23.298;2024-01-07T05:00:50;93071.56;;;8.58;100.00
6343;BME280;3204;42.698;23.298;2024-01-07T05:03:15;93076.13;;;8.54;100.00
6343;BME280;3204;42.698;23.298;2024-01-07T05:05:41;93079.06;;;8.49;100.00
6343;BME280;3204;42.698;23.298;2024-01-07T05:08:06;93069.72;;;8.47;100.00
6343;BME280;3204;42.698;23.298;2024-01-07T05:10:32;93047.03;;;8.63;100.00
6343;BME280;3204;42.698;23.298;2024-01-07T05:12:57;93045.16;;;8.52;100.00
6343;BME280;3204;42.698;23.298;2024-01-07T05:15:23;93035.66;;;8.30;100.00
6343;BME280;3204;42.698;23.298;2024-01-07T05:17:48;93047.81;;;8.24;100.00
6343;BME280;3204;42.698;23.298;2024-01-07T05:20:17;93043.53;;;8.23;100.00
6343;BME280;3204;42.698;23.298;2024-01-07T05:22:42;93034.72;;;8.38;100.00
6343;BME280;3204;42.698;23.298;2024-01-07T05:25:08;93045.41;;;8.35;100.00
6343;BME280;3204;42.698;23.298;2024-01-07T05:27:34;93055.13;;;8.24;100.00
6343;BME280;3204;42.698;23.298;2024-01-07T05:29:59;93046.56;;;8.34;100.00
6343;BME280;3204;42.698;23.298;2024-01-07T05:32:24;93052.19;;;8.29;100.00
6343;BME280;3204;42.698;23.298;2024-01-07T05:34:50;93049.03;;;8.27;100.00
6343;BME280;3204;42.698;23.298;2024-01-07T05:37:15;93045.00;;;8.09;100.00
6343;BME280;3204;42.698;23.298;2024-01-07T05:39:41;93042.50;;;8.16;100.00
6343;BME280;3204;42.698;23.298;2024-01-07T05:42:06;93039.28;;;7.98;100.00
6343;BME280;3204;42.698;23.298;2024-01-07T05:44:31;93033.63;;;8.03;100.00
6343;BME280;3204;42.698;23.298;2024-01-07T05:46:57;93038.94;;;8.00;100.00
6343;BME280;3204;42.698;23.298;2024-01-07T05:49:22;93031.50;;;8.09;100.00
6343;BME280;3204;42.698;23.298;2024-01-07T05:51:47;93021.81;;;8.08;100.00
6343;BME280;3204;42.698;23.298;2024-01-07T05:54:13;93030.28;;;8.06;100.00
6343;BME280;3204;42.698;23.298;2024-01-07T05:56:39;93024.31;;;8.01;100.00
6343;BME280;3204;42.698;23.298;2024-01-07T05:59:05;93034.78;;;7.90;100.00
6343;BME280;3204;42.698;23.298;2024-01-07T06:01:31;93031.84;;;7.95;100.00
6343;BME280;3204;42.698;23.298;2024-01-07T06:03:56;93033.06;;;7.98;100.00
6343;BME280;3204;42.698;23.298;2024-01-07T06:06:22;93023.75;;;7.95;100.00
6343;BME280;3204;42.698;23.298;2024-01-07T06:08:47;93039.59;;;7.85;100.00
6343;BME280;3204;42.698;23.298;2024-01-07T06:11:12;93042.53;;;7.80;100.00
6343;BME280;3204;42.698;23.298;2024-01-07T06:13:43;93030.28;;;7.94;100.00
6343;BME280;3204;42.698;23.298;2024-01-07T06:16:09;93023.59;;;8.16;100.00
6343;BME280;3204;42.698;23.298;2024-01-07T06:18:34;93029.00;;;8.04;100.00
6343;BME280;3204;42.698;23.298;2024-01-07T06:21:00;93037.47;;;8.02;100.00
6343;BME280;3204;42.698;23.298;2024-01-07T06:23:25;93036.34;;;8.03;100.00
6343;BME280;3204;42.698;23.298;2024-01-07T06:25:50;93030.38;;;8.22;100.00
6343;BME280;3204;42.698;23.298;2024-01-07T06:28:16;93028.22;;;8.27;100.00
6343;BME280;3204;42.698;23.298;2024-01-07T06:30:41;93035.53;;;8.15;100.00
6343;BME280;3204;42.698;23.298;2024-01-07T06:33:06;93044.66;;;7.98;100.00
6343;BME280;3204;42.698;23.298;2024-01-07T06:35:32;93055.00;;;7.96;100.00
6343;BME280;3204;42.698;23.298;2024-01-07T06:37:57;93036.56;;;7.98;100.00
6343;BME280;3204;42.698;23.298;2024-01-07T06:40:23;93060.63;;;8.03;100.00
6343;BME280;3204;42.698;23.298;2024-01-07T06:42:48;93052.44;;;8.00;100.00
6343;BME280;3204;42.698;23.298;2024-01-07T06:45:14;93060.97;;;8.02;100.00
6343;BME280;3204;42.698;23.298;2024-01-07T06:47:40;93062.09;;;8.01;100.00
6343;BME280;3204;42.698;23.298;2024-01-07T06:50:06;93069.88;;;8.02;100.00
6343;BME280;3204;42.698;23.298;2024-01-07T06:52:32;93067.38;;;8.09;100.00
6343;BME280;3204;42.698;23.298;2024-01-07T06:54:57;93066.38;;;8.14;100.00
6343;BME280;3204;42.698;23.298;2024-01-07T06:57:23;93065.00;;;8.20;100.00
6343;BME280;3204;42.698;23.298;2024-01-07T06:59:48;93059.50;;;8.16;100.00
6343;BME280;3204;42.698;23.298;2024-01-07T07:02:13;93053.63;;;8.14;100.00
6343;BME280;3204;42.698;23.298;2024-01-07T07:04:39;93064.34;;;8.23;100.00
6343;BME280;3204;42.698;23.298;2024-01-07T07:07:04;93076.41;;;8.25;100.00
6343;BME280;3204;42.698;23.298;2024-01-07T07:09:29;93068.84;;;8.31;100.00
6343;BME280;3204;42.698;23.298;2024-01-07T07:11:55;93070.53;;;8.35;100.00
6343;BME280;3204;42.698;23.298;2024-01-07T07:14:20;93065.53;;;8.49;100.00
6343;BME280;3204;42.698;23.298;2024-01-07T07:16:45;93063.38;;;8.55;100.00
6343;BME280;3204;42.698;23.298;2024-01-07T07:19:11;93055.44;;;8.34;100.00
6343;BME280;3204;42.698;23.298;2024-01-07T07:21:40;93060.97;;;8.26;100.00
6343;BME280;3204;42.698;23.298;2024-01-07T07:24:05;93047.69;;;8.33;100.00
6343;BME280;3204;42.698;23.298;2024-01-07T07:26:31;93047.78;;;8.36;100.00
6343;BME280;3204;42.698;23.298;2024-01-07T07:28:57;93046.75;;;8.41;100.00
6343;BME280;3204;42.698;23.298;2024-01-07T07:31:22;93053.72;;;8.81;100.00
6343;BME280;3204;42.698;23.298;2024-01-07T07:33:48;93057.38;;;8.73;100.00
6343;BME280;3204;42.698;23.298;2024-01-07T07:36:14;93070.41;;;8.71;100.00
6343;BME280;3204;42.698;23.298;2024-01-07T07:38:40;93066.94;;;8.71;100.00
6343;BME280;3204;42.698;23.298;2024-01-07T07:41:06;93060.50;;;8.75;100.00
6343;BME280;3204;42.698;23.298;2024-01-07T07:43:32;93056.22;;;8.74;100.00
6343;BME280;3204;42.698;23.298;2024-01-07T07:45:58;93055.44;;;8.74;100.00
6343;BME280;3204;42.698;23.298;2024-01-07T07:48:24;93053.22;;;8.91;100.00
6343;BME280;3204;42.698;23.298;2024-01-07T07:50:51;93051.66;;;8.90;100.00
6343;BME280;3204;42.698;23.298;2024-01-07T07:53:16;93050.59;;;8.79;100.00
6343;BME280;3204;42.698;23.298;2024-01-07T07:55:42;93050.25;;;8.81;100.00
6343;BME280;3204;42.698;23.298;2024-01-07T07:58:07;93058.88;;;8.86;100.00
6343;BME280;3204;42.698;23.298;2024-01-07T08:00:33;93058.25;;;9.05;100.00
6343;BME280;3204;42.698;23.298;2024-01-07T08:02:59;93039.16;;;9.13;100.00
6343;BME280;3204;42.698;23.298;2024-01-07T08:05:24;93048.56;;;9.04;100.00
6343;BME280;3204;42.698;23.298;2024-01-07T08:07:49;93041.22;;;9.04;100.00
6343;BME280;3204;42.698;23.298;2024-01-07T08:10:15;93043.03;;;9.00;100.00
6343;BME280;3204;42.698;23.298;2024-01-07T08:12:41;93047.28;;;9.13;100.00
6343;BME280;3204;42.698;23.298;2024-01-07T08:15:07;93046.75;;;9.23;100.00
6343;BME280;3204;42.698;23.298;2024-01-07T08:17:33;93047.34;;;9.17;100.00
6343;BME280;3204;42.698;23.298;2024-01-07T08:19:58;93045.63;;;9.24;100.00
6343;BME280;3204;42.698;23.298;2024-01-07T08:22:25;93044.13;;;9.27;100.00
6343;BME280;3204;42.698;23.298;2024-01-07T08:24:50;93048.94;;;9.33;100.00
6343;BME280;3204;42.698;23.298;2024-01-07T08:27:16;93047.66;;;9.43;100.00
6343;BME280;3204;42.698;23.298;2024-01-07T08:29:44;93039.84;;;9.53;100.00
6343;BME280;3204;42.698;23.298;2024-01-07T08:32:10;93031.88;;;9.76;99.42
6343;BME280;3204;42.698;23.298;2024-01-07T08:34:37;93045.22;;;9.69;97.89
6343;BME280;3204;42.698;23.298;2024-01-07T08:37:03;93034.66;;;9.48;98.74
6343;BME280;3204;42.698;23.298;2024-01-07T08:39:29;93034.22;;;9.46;99.55
6343;BME280;3204;42.698;23.298;2024-01-07T08:41:55;93042.16;;;9.55;97.95
6343;BME280;3204;42.698;23.298;2024-01-07T08:44:20;93048.78;;;9.57;98.95
6343;BME280;3204;42.698;23.298;2024-01-07T08:46:46;93055.09;;;9.61;99.28
6343;BME280;3204;42.698;23.298;2024-01-07T08:49:11;93057.19;;;9.68;99.85
6343;BME280;3204;42.698;23.298;2024-01-07T08:51:36;93046.97;;;9.77;100.00
6343;BME280;3204;42.698;23.298;2024-01-07T08:54:03;93046.63;;;9.94;98.06
6343;BME280;3204;42.698;23.298;2024-01-07T08:56:29;93044.63;;;9.91;98.31
6343;BME280;3204;42.698;23.298;2024-01-07T08:58:54;93031.50;;;9.93;98.33
6343;BME280;3204;42.698;23.298;2024-01-07T09:01:19;93023.91;;;10.14;98.10
6343;BME280;3204;42.698;23.298;2024-01-07T09:03:45;93026.53;;;9.95;96.32
6343;BME280;3204;42.698;23.298;2024-01-07T09:06:10;93028.44;;;9.79;97.29
6343;BME280;3204;42.698;23.298;2024-01-07T09:08:36;93026.00;;;9.74;98.15
6343;BME280;3204;42.698;23.298;2024-01-07T09:11:03;93027.16;;;9.88;99.02
6343;BME280;3204;42.698;23.298;2024-01-07T09:13:29;93021.28;;;10.02;99.11
6343;BME280;3204;42.698;23.298;2024-01-07T09:15:54;93040.75;;;10.23;98.27
6343;BME280;3204;42.698;23.298;2024-01-07T09:18:20;93042.31;;;10.24;97.36
6343;BME280;3204;42.698;23.298;2024-01-07T09:20:46;93046.03;;;10.35;97.27
6343;BME280;3204;42.698;23.298;2024-01-07T09:23:12;93057.19;;;10.49;97.10
6343;BME280;3204;42.698;23.298;2024-01-07T09:25:37;93051.16;;;10.55;96.36
6343;BME280;3204;42.698;23.298;2024-01-07T09:28:03;93048.16;;;10.60;95.33
6343;BME280;3204;42.698;23.298;2024-01-07T09:30:29;93042.91;;;10.67;94.62
6343;BME280;3204;42.698;23.298;2024-01-07T09:32:54;93037.56;;;10.71;93.69
6343;BME280;3204;42.698;23.298;2024-01-07T09:35:20;93034.69;;;10.83;94.19
6343;BME280;3204;42.698;23.298;2024-01-07T09:37:45;93033.41;;;10.96;92.46
6343;BME280;3204;42.698;23.298;2024-01-07T09:40:11;93033.97;;;11.05;92.52
6343;BME280;3204;42.698;23.298;2024-01-07T09:42:37;93028.25;;;11.10;92.40
6343;BME280;3204;42.698;23.298;2024-01-07T09:45:03;93021.53;;;11.23;91.32
6343;BME280;3204;42.698;23.298;2024-01-07T09:47:29;93031.34;;;11.31;90.74
6343;BME280;3204;42.698;23.298;2024-01-07T09:49:55;93032.06;;;11.47;90.55
6343;BME280;3204;42.698;23.298;2024-01-07T09:52:20;93031.31;;;11.50;90.39
6343;BME280;3204;42.698;23.298;2024-01-07T09:54:51;93037.25;;;11.55;89.19
6343;BME280;3204;42.698;23.298;2024-01-07T09:57:17;93033.97;;;11.65;88.25
6343;BME280;3204;42.698;23.298;2024-01-07T09:59:42;93029.69;;;11.64;87.59
6343;BME280;3204;42.698;23.298;2024-01-07T10:02:08;93033.91;;;11.62;86.15
6343;BME280;3204;42.698;23.298;2024-01-07T10:04:34;93020.97;;;11.55;86.34
6343;BME280;3204;42.698;23.298;2024-01-07T10:07:00;93033.09;;;11.61;87.08
6343;BME280;3204;42.698;23.298;2024-01-07T10:09:29;93025.47;;;11.67;87.72
6343;BME280;3204;42.698;23.298;2024-01-07T10:11:55;93020.28;;;11.81;88.00
6343;BME280;3204;42.698;23.298;2024-01-07T10:14:20;93007.75;;;11.99;85.74
6343;BME280;3204;42.698;23.298;2024-01-07T10:16:51;93004.88;;;11.66;83.01
6343;BME280;3204;42.698;23.298;2024-01-07T10:19:20;92992.41;;;11.42;84.58
6343;BME280;3204;42.698;23.298;2024-01-07T10:21:46;92988.63;;;11.47;85.74
6343;BME280;3204;42.698;23.298;2024-01-07T10:24:12;92978.19;;;11.49;85.46
6343;BME280;3204;42.698;23.298;2024-01-07T10:26:39;92974.53;;;11.60;83.96
6343;BME280;3204;42.698;23.298;2024-01-07T10:29:05;92975.47;;;11.49;83.05
6343;BME280;3204;42.698;23.298;2024-01-07T10:31:37;92974.75;;;11.52;82.11
6343;BME280;3204;42.698;23.298;2024-01-07T10:34:03;92960.88;;;11.57;82.12
6343;BME280;3204;42.698;23.298;2024-01-07T10:36:29;92963.72;;;11.64;81.91
6343;BME280;3204;42.698;23.298;2024-01-07T10:38:55;92958.81;;;11.73;81.59
6343;BME280;3204;42.698;23.298;2024-01-07T10:41:21;92949.69;;;11.84;82.47
6343;BME280;3204;42.698;23.298;2024-01-07T10:43:47;92951.66;;;11.84;81.69
6343;BME280;3204;42.698;23.298;2024-01-07T10:46:14;92950.81;;;11.80;81.51
6343;BME280;3204;42.698;23.298;2024-01-07T10:48:53;92945.44;;;11.83;82.15
6343;BME280;3204;42.698;23.298;2024-01-07T10:51:20;92952.19;;;11.93;81.27
6343;BME280;3204;42.698;23.298;2024-01-07T10:53:52;92948.88;;;12.06;80.93
6343;BME280;3204;42.698;23.298;2024-01-07T10:56:24;92957.91;;;12.14;80.79
6343;BME280;3204;42.698;23.298;2024-01-07T10:58:53;92954.88;;;12.19;80.67
6343;BME280;3204;42.698;23.298;2024-01-07T11:01:22;92945.75;;;12.34;79.36
6343;BME280;3204;42.698;23.298;2024-01-07T11:06:57;92944.19;;;12.33;79.48
6343;BME280;3204;42.698;23.298;2024-01-07T11:09:41;92953.22;;;12.70;79.64
6343;BME280;3204;42.698;23.298;2024-01-07T11:12:10;92954.38;;;12.69;79.37
6343;BME280;3204;42.698;23.298;2024-01-07T11:14:38;92961.28;;;12.96;76.82
6343;BME280;3204;42.698;23.298;2024-01-07T11:17:08;92950.00;;;12.94;77.34
6343;BME280;3204;42.698;23.298;2024-01-07T11:19:38;92966.44;;;13.01;76.85
6343;BME280;3204;42.698;23.298;2024-01-07T11:24:50;92959.94;;;12.79;75.64
6343;BME280;3204;42.698;23.298;2024-01-07T11:27:16;92966.16;;;12.80;76.32
6343;BME280;3204;42.698;23.298;2024-01-07T11:29:41;92972.09;;;12.89;76.58
6343;BME280;3204;42.698;23.298;2024-01-07T11:32:07;92959.13;;;13.08;75.68
6343;BME280;3204;42.698;23.298;2024-01-07T11:34:42;92955.28;;;13.09;76.20
6343;BME280;3204;42.698;23.298;2024-01-07T11:37:17;92958.41;;;13.11;75.58
6343;BME280;3204;42.698;23.298;2024-01-07T11:39:43;92958.09;;;13.20;75.11
6343;BME280;3204;42.698;23.298;2024-01-07T11:42:12;92966.84;;;13.03;75.27
6343;BME280;3204;42.698;23.298;2024-01-07T11:44:46;92961.63;;;12.91;76.21
6343;BME280;3204;42.698;23.298;2024-01-07T11:47:12;92961.63;;;12.91;76.60
6343;BME280;3204;42.698;23.298;2024-01-07T11:49:39;92966.81;;;12.99;76.32
6343;BME280;3204;42.698;23.298;2024-01-07T11:52:05;92969.97;;;13.05;75.32
6343;BME280;3204;42.698;23.298;2024-01-07T11:54:31;92966.91;;;13.06;75.47
6343;BME280;3204;42.698;23.298;2024-01-07T11:56:56;92967.41;;;13.19;74.45
6343;BME280;3204;42.698;23.298;2024-01-07T11:59:23;92969.06;;;13.27;74.18
6343;BME280;3204;42.698;23.298;2024-01-07T12:01:48;92964.50;;;13.38;77.52
6343;BME280;3204;42.698;23.298;2024-01-07T12:04:14;92957.38;;;13.66;84.02
6343;BME280;3204;42.698;23.298;2024-01-07T12:06:40;92961.78;;;13.81;73.40
6343;BME280;3204;42.698;23.298;2024-01-07T12:09:05;92955.06;;;13.68;73.47
6343;BME280;3204;42.698;23.298;2024-01-07T12:11:31;92958.88;;;13.60;74.52
6343;BME280;3204;42.698;23.298;2024-01-07T12:13:57;92959.63;;;13.57;74.87
6343;BME280;3204;42.698;23.298;2024-01-07T12:16:22;92954.09;;;13.47;74.57
6343;BME280;3204;42.698;23.298;2024-01-07T12:18:48;92954.81;;;13.44;74.17
6343;BME280;3204;42.698;23.298;2024-01-07T12:21:19;92972.22;;;13.32;74.48
6343;BME280;3204;42.698;23.298;2024-01-07T12:23:48;92970.59;;;13.24;74.80
6343;BME280;3204;42.698;23.298;2024-01-07T12:26:16;92972.16;;;13.25;74.90
6343;BME280;3204;42.698;23.298;2024-01-07T12:28:42;92963.16;;;13.21;74.99
6343;BME280;3204;42.698;23.298;2024-01-07T12:31:07;92971.69;;;13.20;75.58
6343;BME280;3204;42.698;23.298;2024-01-07T12:33:36;92967.78;;;13.17;75.33
6343;BME280;3204;42.698;23.298;2024-01-07T12:36:02;92966.94;;;13.10;75.75
6343;BME280;3204;42.698;23.298;2024-01-07T12:38:28;92971.03;;;12.97;75.69
6343;BME280;3204;42.698;23.298;2024-01-07T12:40:53;92973.34;;;12.95;75.67
6343;BME280;3204;42.698;23.298;2024-01-07T12:43:19;92967.50;;;12.93;76.04
6343;BME280;3204;42.698;23.298;2024-01-07T12:45:45;92964.78;;;12.93;76.32
6343;BME280;3204;42.698;23.298;2024-01-07T12:48:11;92963.16;;;12.88;76.88
6343;BME280;3204;42.698;23.298;2024-01-07T12:50:37;92966.56;;;12.82;77.10
6343;BME280;3204;42.698;23.298;2024-01-07T12:53:02;92957.66;;;12.81;77.52
6343;BME280;3204;42.698;23.298;2024-01-07T12:55:28;92967.41;;;12.86;77.53
6343;BME280;3204;42.698;23.298;2024-01-07T12:57:54;92963.09;;;12.81;78.15
6343;BME280;3204;42.698;23.298;2024-01-07T13:00:20;92970.06;;;12.79;77.95
6343;BME280;3204;42.698;23.298;2024-01-07T13:02:46;92977.03;;;12.80;78.33
6343;BME280;3204;42.698;23.298;2024-01-07T13:05:12;92978.22;;;12.79;78.00
6343;BME280;3204;42.698;23.298;2024-01-07T13:07:38;92980.94;;;12.79;78.43
6343;BME280;3204;42.698;23.298;2024-01-07T13:10:04;92979.78;;;12.80;78.12
6343;BME280;3204;42.698;23.298;2024-01-07T13:12:29;92978.94;;;12.76;78.36
6343;BME280;3204;42.698;23.298;2024-01-07T13:14:54;92977.72;;;12.70;78.92